Time;durP1;ratioP1;P1;durP2;ratioP2;P2;SDS_P1;SDS_P2;PMS_P1;PMS_P2;Temp;Humidity;BMP_temperature;BMP_pressure;BME280_temperature;BME280_humidity;BME280_pressure;Samples;Min_cycle;Max_cycle;Signal;HPM_P1;HPM_P2
2021/06/13 00:00:24;;;;;;;6.15;5.10;;;;;;;18.54;99.26;99936.06;5054174;28;20049;-76
2021/06/13 00:02:52;;;;;;;7.03;5.57;;;;;;;18.46;100.00;99946.75;5055483;28;20037;-76
2021/06/13 00:05:21;;;;;;;6.47;5.20;;;;;;;18.44;100.00;99931.72;5053808;28;20556;-76
2021/06/13 00:07:50;;;;;;;6.88;5.88;;;;;;;18.47;100.00;99934.09;5055148;28;20509;-76
2021/06/13 00:10:18;;;;;;;6.68;5.55;;;;;;;18.44;100.00;99947.91;5055184;28;20045;-77
2021/06/13 00:12:46;;;;;;;9.18;5.90;;;;;;;18.39;100.00;99942.94;5054760;28;20170;-75
2021/06/13 00:15:18;;;;;;;7.32;5.07;;;;;;;18.37;100.00;99938.69;5054885;28;20053;-75
2021/06/13 00:17:46;;;;;;;8.77;5.80;;;;;;;18.37;100.00;99949.50;5054814;28;20049;-76
2021/06/13 00:20:15;;;;;;;8.32;5.82;;;;;;;18.31;100.00;99943.69;5054669;28;20051;-77
2021/06/13 00:22:44;;;;;;;7.95;5.90;;;;;;;18.32;100.00;99952.63;5054805;28;20098;-75
2021/06/13 00:25:14;;;;;;;8.85;6.25;;;;;;;18.29;100.00;99952.94;5054933;28;20041;-76
2021/06/13 00:27:42;;;;;;;8.00;5.72;;;;;;;18.35;100.00;99956.91;5054672;28;20479;-75
2021/06/13 00:30:12;;;;;;;7.50;5.93;;;;;;;18.34;100.00;99956.06;5054882;28;20458;-76
2021/06/13 00:32:39;;;;;;;8.23;6.40;;;;;;;18.37;100.00;99953.03;5054332;28;20496;-75
2021/06/13 00:35:09;;;;;;;10.10;6.05;;;;;;;18.37;100.00;99965.69;5054487;28;20057;-77
2021/06/13 00:37:37;;;;;;;6.72;5.45;;;;;;;18.38;100.00;99962.00;5054165;28;20055;-77
2021/06/13 00:40:09;;;;;;;8.52;6.65;;;;;;;18.35;100.00;99962.31;5053992;28;20057;-77
2021/06/13 00:42:38;;;;;;;9.63;6.43;;;;;;;18.43;100.00;99965.09;5054291;28;20045;-77
2021/06/13 00:45:08;;;;;;;6.80;5.45;;;;;;;18.35;100.00;99952.34;5054472;28;20045;-77
2021/06/13 00:47:36;;;;;;;8.07;6.35;;;;;;;18.33;100.00;99970.53;5054129;28;20044;-76
2021/06/13 00:50:04;;;;;;;10.20;6.80;;;;;;;18.31;100.00;99972.53;5054409;28;20041;-75
2021/06/13 00:52:35;;;;;;;9.48;7.10;;;;;;;18.35;100.00;99975.81;5054180;28;20406;-77
2021/06/13 00:55:04;;;;;;;9.20;6.97;;;;;;;18.33;100.00;99967.81;5054170;28;20041;-77
2021/06/13 00:57:36;;;;;;;10.68;6.88;;;;;;;18.30;100.00;99965.44;5053992;28;20041;-77
2021/06/13 01:00:06;;;;;;;8.48;6.47;;;;;;;18.30;100.00;99971.69;5054123;28;20098;-77
2021/06/13 01:02:35;;;;;;;11.45;7.85;;;;;;;18.25;100.00;99984.78;5054043;28;20049;-75
2021/06/13 01:05:04;;;;;;;9.38;6.90;;;;;;;18.22;100.00;99990.47;5054137;28;20091;-75
2021/06/13 01:07:39;;;;;;;9.50;7.35;;;;;;;18.24;100.00;99998.44;5053838;28;20069;-76
2021/06/13 01:10:14;;;;;;;8.57;6.35;;;;;;;18.16;100.00;99988.38;5053774;28;20132;-76
2021/06/13 01:12:47;;;;;;;11.23;6.75;;;;;;;18.20;100.00;99980.81;5054022;28;20068;-78
2021/06/13 01:15:19;;;;;;;9.02;5.45;;;;;;;18.16;100.00;99977.56;5053779;28;20072;-77
2021/06/13 01:17:59;;;;;;;8.82;5.82;;;;;;;18.12;99.85;99976.16;5053817;28;20095;-77
2021/06/13 01:20:28;;;;;;;8.20;5.35;;;;;;;18.05;100.00;99983.16;5053626;28;20041;-76
2021/06/13 01:23:25;;;;;;;7.65;5.22;;;;;;;17.95;99.78;99982.31;5053681;28;20037;-76
2021/06/13 01:26:20;;;;;;;8.85;5.63;;;;;;;17.93;100.00;99981.59;5053223;28;20052;-75
2021/06/13 01:28:58;;;;;;;7.28;5.72;;;;;;;17.89;100.00;99983.75;5048850;28;20061;-76
2021/06/13 01:31:30;;;;;;;8.80;6.00;;;;;;;17.87;100.00;99969.56;5053878;28;20041;-76
2021/06/13 01:34:00;;;;;;;6.88;5.65;;;;;;;17.84;100.00;99980.63;5053693;28;20376;-76
2021/06/13 01:36:29;;;;;;;7.55;5.65;;;;;;;17.79;100.00;99982.06;5053425;28;20041;-75
2021/06/13 01:39:00;;;;;;;8.68;5.20;;;;;;;17.80;99.37;99984.63;5053446;28;20049;-76
2021/06/13 01:41:32;;;;;;;8.23;5.18;;;;;;;17.77;98.69;99981.38;5053261;28;20041;-78
2021/06/13 01:44:02;;;;;;;5.90;4.65;;;;;;;17.75;98.38;99989.59;5053742;28;20049;-77
2021/06/13 01:46:33;;;;;;;8.35;5.68;;;;;;;17.66;99.14;99983.22;5053394;28;20512;-76
2021/06/13 01:49:02;;;;;;;8.18;5.32;;;;;;;17.70;99.91;99986.50;5053317;28;20171;-77
2021/06/13 01:51:31;;;;;;;7.75;5.60;;;;;;;17.62;99.59;99997.13;5055205;28;20037;-78
2021/06/13 01:54:01;;;;;;;7.90;5.70;;;;;;;17.56;100.00;99998.53;5053439;28;20049;-77
2021/06/13 01:56:30;;;;;;;8.38;5.60;;;;;;;17.58;100.00;100007.34;5053535;28;20099;-79
2021/06/13 01:59:00;;;;;;;9.82;6.00;;;;;;;17.53;100.00;100003.38;5053167;28;20047;-78
2021/06/13 02:01:30;;;;;;;8.52;5.65;;;;;;;17.44;100.00;100005.06;5053115;28;20048;-77
2021/06/13 02:04:00;;;;;;;7.10;4.95;;;;;;;17.30;100.00;100008.19;5053117;28;20037;-77
2021/06/13 02:06:31;;;;;;;6.15;4.30;;;;;;;17.26;99.53;100002.22;5053327;28;20116;-77
2021/06/13 02:09:00;;;;;;;6.32;5.22;;;;;;;17.24;100.00;100008.75;5053481;28;20375;-77
2021/06/13 02:11:30;;;;;;;6.72;4.50;;;;;;;17.12;99.49;100003.50;5053109;28;20045;-77
2021/06/13 02:14:01;;;;;;;7.28;4.43;;;;;;;17.06;98.60;99995.97;5053224;28;20045;-77
2021/06/13 02:16:30;;;;;;;5.10;3.78;;;;;;;17.04;96.72;100007.88;5053101;28;20045;-77
2021/06/13 02:18:59;;;;;;;6.53;4.35;;;;;;;16.96;95.59;100010.41;5052818;28;20068;-77
2021/06/13 02:21:28;;;;;;;6.30;4.00;;;;;;;16.88;95.28;100005.72;5053083;28;20123;-76
2021/06/13 02:23:57;;;;;;;5.68;3.47;;;;;;;16.80;95.40;100016.34;5056649;28;20045;-76
2021/06/13 02:26:26;;;;;;;5.68;3.50;;;;;;;16.75;93.85;100023.97;5055964;28;20053;-77
2021/06/13 02:28:57;;;;;;;6.53;3.40;;;;;;;16.69;93.03;100029.91;5056845;28;20462;-76
2021/06/13 02:31:29;;;;;;;4.63;3.10;;;;;;;16.63;92.39;100030.44;5056918;28;20040;-77
2021/06/13 02:33:58;;;;;;;5.60;3.20;;;;;;;16.59;91.46;100035.22;5057165;28;20417;-75
2021/06/13 02:36:26;;;;;;;5.28;3.45;;;;;;;16.55;92.29;100045.41;5055841;28;20049;-77
2021/06/13 02:38:54;;;;;;;5.30;2.97;;;;;;;16.50;90.90;100038.72;5056718;28;20041;-77
2021/06/13 02:41:23;;;;;;;5.68;3.35;;;;;;;16.47;89.31;100047.06;5056799;28;20041;-77
2021/06/13 02:43:51;;;;;;;5.05;3.30;;;;;;;16.41;88.16;100050.31;5056371;28;20052;-78
2021/06/13 02:46:19;;;;;;;6.22;3.22;;;;;;;16.33;88.50;100053.69;5056336;28;20053;-77
2021/06/13 02:48:48;;;;;;;8.60;3.40;;;;;;;16.24;89.09;100067.94;5056492;28;20553;-77
2021/06/13 02:51:20;;;;;;;7.05;4.15;;;;;;;16.18;89.05;100063.06;5056748;28;20041;-77
2021/06/13 02:53:54;;;;;;;6.68;3.63;;;;;;;16.13;87.64;100068.00;5056378;28;20453;-77
2021/06/13 02:56:28;;;;;;;7.00;3.65;;;;;;;16.09;88.18;100069.25;5056660;28;20045;-77
2021/06/13 02:59:04;;;;;;;7.63;4.10;;;;;;;16.05;88.14;100078.56;5056353;28;20072;-77
2021/06/13 03:01:33;;;;;;;6.13;3.60;;;;;;;16.07;88.99;100081.97;5056480;28;20049;-77
2021/06/13 03:04:07;;;;;;;10.07;4.15;;;;;;;15.99;88.15;100080.78;5056245;28;20405;-77
2021/06/13 03:06:34;;;;;;;7.22;3.97;;;;;;;15.92;87.87;100087.69;5056205;28;20099;-78
2021/06/13 03:09:08;;;;;;;6.90;4.20;;;;;;;15.94;88.31;100084.88;5056213;28;20063;-78
2021/06/13 03:11:39;;;;;;;8.60;3.90;;;;;;;15.86;88.42;100095.44;5056213;28;20041;-78
2021/06/13 03:14:08;;;;;;;7.72;4.15;;;;;;;15.92;87.76;100084.13;5056330;28;20045;-78
2021/06/13 03:16:37;;;;;;;5.82;4.13;;;;;;;15.90;87.58;100081.56;5055720;28;20106;-78
2021/06/13 03:19:09;;;;;;;7.32;3.85;;;;;;;15.91;86.37;100094.03;5054681;28;20049;-77
2021/06/13 03:21:38;;;;;;;6.38;3.38;;;;;;;15.98;86.40;100094.38;5055734;28;20103;-77
2021/06/13 03:24:07;;;;;;;7.40;3.65;;;;;;;15.98;84.85;100110.50;5056054;28;20482;-77
2021/06/13 03:26:37;;;;;;;8.18;3.97;;;;;;;15.94;85.64;100107.25;5055864;28;20040;-78
2021/06/13 03:29:06;;;;;;;6.18;3.72;;;;;;;16.13;84.62;100121.81;5056169;28;20413;-75
2021/06/13 03:31:35;;;;;;;6.38;3.03;;;;;;;16.20;83.07;100115.75;5055918;28;20045;-76
2021/06/13 03:34:04;;;;;;;6.18;3.63;;;;;;;16.52;81.31;100137.22;5054313;28;20116;-76
2021/06/13 03:36:34;;;;;;;5.57;3.50;;;;;;;16.90;79.16;100124.13;5056028;28;20441;-76
2021/06/13 03:39:03;;;;;;;5.97;3.50;;;;;;;17.42;77.70;100142.72;5055934;28;20037;-78
2021/06/13 03:41:32;;;;;;;5.53;3.47;;;;;;;17.81;74.90;100141.94;5055568;28;20474;-77
2021/06/13 03:44:01;;;;;;;4.35;3.03;;;;;;;18.09;73.25;100135.69;5055522;28;20045;-77
2021/06/13 03:46:29;;;;;;;5.38;3.83;;;;;;;18.16;73.19;100153.03;5055884;28;20053;-78
2021/06/13 03:49:00;;;;;;;5.78;3.50;;;;;;;18.70;70.76;100140.72;5055414;28;20041;-77
2021/06/13 03:51:29;;;;;;;7.68;3.28;;;;;;;18.93;68.60;100159.28;5055813;28;20490;-77
2021/06/13 03:53:59;;;;;;;5.25;3.08;;;;;;;19.20;67.81;100159.28;5055280;28;20045;-77
2021/06/13 03:56:30;;;;;;;5.93;3.00;;;;;;;19.41;66.00;100157.22;5055508;28;20041;-76
2021/06/13 03:58:59;;;;;;;7.03;3.08;;;;;;;19.59;66.10;100169.94;5055084;28;20040;-77
2021/06/13 04:01:28;;;;;;;7.05;3.20;;;;;;;19.80;64.27;100178.63;5055466;28;20049;-77
2021/06/13 04:03:57;;;;;;;7.85;3.42;;;;;;;20.21;62.58;100189.84;5053946;28;20069;-77
2021/06/13 04:06:27;;;;;;;5.50;3.28;;;;;;;20.57;61.91;100199.69;5055280;28;20045;-77
2021/06/13 04:08:56;;;;;;;5.38;2.88;;;;;;;21.11;59.99;100199.50;5055017;28;20045;-76
2021/06/13 04:11:27;;;;;;;8.32;3.33;;;;;;;21.06;58.73;100189.16;5054890;28;20041;-75
2021/06/13 04:13:57;;;;;;;7.97;3.25;;;;;;;21.41;57.46;100196.28;5054771;28;20578;-76
2021/06/13 04:16:25;;;;;;;4.82;2.58;;;;;;;21.40;57.71;100208.16;5055239;28;20068;-77
2021/06/13 04:18:54;;;;;;;7.97;3.00;;;;;;;21.58;57.36;100199.91;5054888;28;20478;-76
2021/06/13 04:21:23;;;;;;;5.38;2.67;;;;;;;21.52;56.32;100208.75;5055151;28;20044;-76
2021/06/13 04:23:52;;;;;;;4.53;2.67;;;;;;;21.40;56.83;100204.59;5054672;28;20145;-75
2021/06/13 04:26:22;;;;;;;6.55;2.80;;;;;;;21.81;54.58;100218.31;5054737;28;20470;-77
2021/06/13 04:28:52;;;;;;;5.22;2.95;;;;;;;21.77;54.45;100215.06;5054699;28;20064;-77
2021/06/13 04:31:21;;;;;;;4.60;2.80;;;;;;;21.99;54.20;100213.59;5054973;28;20048;-77
2021/06/13 04:33:51;;;;;;;5.47;2.25;;;;;;;22.47;52.44;100217.41;5054445;28;20052;-77
2021/06/13 04:36:21;;;;;;;5.40;2.67;;;;;;;21.44;54.82;100214.13;5054457;28;20044;-77
2021/06/13 04:38:50;;;;;;;5.18;2.90;;;;;;;22.54;52.62;100229.31;5054100;28;20530;-77
2021/06/13 04:41:18;;;;;;;6.25;2.65;;;;;;;21.90;54.35;100223.59;5054690;28;20486;-77
2021/06/13 04:43:49;;;;;;;6.03;2.97;;;;;;;22.33;52.99;100228.97;5054390;28;20095;-77
2021/06/13 04:46:23;;;;;;;3.70;2.58;;;;;;;22.98;51.29;100227.09;5053985;28;20064;-77
2021/06/13 04:48:54;;;;;;;5.18;2.72;;;;;;;22.98;50.72;100231.69;5054185;28;20041;-77
2021/06/13 04:51:22;;;;;;;8.05;2.42;;;;;;;23.25;50.81;100235.88;5054286;28;20056;-77
2021/06/13 04:54:16;;;;;;;5.88;2.92;;;;;;;22.95;49.97;100242.91;5054213;28;20064;-77
2021/06/13 04:56:48;;;;;;;;;;;;;;;23.10;49.90;100242.03;5054368;28;20041;-79
2021/06/13 04:59:16;;;;;;;6.07;2.70;;;;;;;22.85;50.82;100245.81;5054248;28;19925;-76
2021/06/13 05:01:46;;;;;;;5.13;2.70;;;;;;;23.34;49.54;100243.81;5053669;28;20110;-76
2021/06/13 05:04:14;;;;;;;5.75;2.35;;;;;;;23.04;50.53;100247.31;5054098;28;20049;-75
2021/06/13 05:06:43;;;;;;;6.75;2.50;;;;;;;22.85;51.05;100252.09;5053967;28;20481;-76
2021/06/13 05:09:13;;;;;;;6.13;2.60;;;;;;;22.61;51.15;100262.97;5054130;28;20045;-76
2021/06/13 05:11:41;;;;;;;6.65;2.53;;;;;;;21.56;54.39;100267.09;5053909;28;20045;-77
2021/06/13 05:14:09;;;;;;;7.68;2.70;;;;;;;22.06;52.80;100262.69;5053597;28;20079;-77
2021/06/13 05:16:41;;;;;;;4.40;2.40;;;;;;;21.70;53.75;100261.03;5057174;28;20051;-76
2021/06/13 05:19:11;;;;;;;5.18;2.65;;;;;;;22.52;53.21;100269.41;5056125;28;20103;-76
2021/06/13 05:21:39;;;;;;;4.47;2.47;;;;;;;22.62;50.99;100261.94;5054119;28;20051;-76
2021/06/13 05:24:08;;;;;;;6.22;2.38;;;;;;;23.01;50.53;100275.72;5053773;28;20041;-76
2021/06/13 05:26:36;;;;;;;3.85;2.50;;;;;;;23.92;48.54;100275.28;5053576;28;20094;-76
2021/06/13 05:29:06;;;;;;;8.05;2.25;;;;;;;22.82;50.51;100276.03;5053336;28;20479;-76
2021/06/13 05:31:34;;;;;;;8.60;2.70;;;;;;;23.00;49.74;100278.63;5053819;28;20182;-75
2021/06/13 05:34:03;;;;;;;6.75;2.60;;;;;;;23.31;49.37;100281.44;5053208;28;20041;-78
2021/06/13 05:36:32;;;;;;;4.72;2.40;;;;;;;23.46;49.14;100284.31;5053625;28;20041;-77
2021/06/13 05:39:01;;;;;;;5.20;2.58;;;;;;;23.86;47.41;100276.00;5053122;28;20437;-76
2021/06/13 05:41:30;;;;;;;7.28;2.65;;;;;;;24.35;45.46;100285.81;5053543;28;20131;-76
2021/06/13 05:44:01;;;;;;;6.57;2.70;;;;;;;24.25;46.34;100280.56;5053425;28;20049;-76
2021/06/13 05:46:32;;;;;;;5.88;2.30;;;;;;;23.96;45.89;100284.81;5053422;28;20127;-76
2021/06/13 05:49:01;;;;;;;4.13;2.33;;;;;;;24.12;45.32;100277.56;5053366;28;20116;-76
2021/06/13 05:51:29;;;;;;;7.20;2.20;;;;;;;24.20;45.24;100286.53;5053167;28;20049;-75
2021/06/13 05:54:01;;;;;;;4.43;2.08;;;;;;;24.61;43.38;100296.34;5052689;28;20044;-78
2021/06/13 05:56:30;;;;;;;5.97;2.60;;;;;;;24.96;41.74;100279.34;5052754;28;20037;-76
2021/06/13 05:58:59;;;;;;;5.32;2.53;;;;;;;25.58;39.69;100287.28;5052631;28;20072;-77
2021/06/13 06:01:27;;;;;;;4.60;1.98;;;;;;;24.66;41.38;100302.13;5053061;28;20086;-77
2021/06/13 06:03:56;;;;;;;5.38;2.13;;;;;;;25.19;40.28;100293.00;5052744;28;20061;-77
2021/06/13 06:06:24;;;;;;;3.90;1.90;;;;;;;24.41;40.78;100302.28;5052944;28;20044;-77
2021/06/13 06:08:52;;;;;;;13.70;2.45;;;;;;;24.61;40.44;100290.88;5052951;28;20049;-77
2021/06/13 06:11:21;;;;;;;4.25;2.00;;;;;;;25.09;40.34;100298.72;5053103;28;20076;-77
2021/06/13 06:13:53;;;;;;;6.70;2.30;;;;;;;25.48;40.01;100294.03;5052524;28;20495;-78
2021/06/13 06:16:23;;;;;;;4.63;2.20;;;;;;;25.26;39.50;100295.81;5052952;28;20045;-77
2021/06/13 06:18:51;;;;;;;2.85;1.90;;;;;;;24.29;40.47;100303.69;5052533;28;20048;-78
2021/06/13 06:21:21;;;;;;;5.40;2.20;;;;;;;24.61;39.42;100301.78;5053219;28;20367;-77
2021/06/13 06:23:49;;;;;;;4.03;2.05;;;;;;;24.95;37.83;100309.53;5052393;28;20041;-78
2021/06/13 06:26:18;;;;;;;3.72;1.88;;;;;;;25.16;37.72;100311.59;5053018;28;20041;-77
2021/06/13 06:28:47;;;;;;;4.55;1.90;;;;;;;25.11;37.12;100303.97;5052635;28;20486;-77
2021/06/13 06:31:16;;;;;;;5.70;1.83;;;;;;;25.25;36.62;100305.88;5052617;28;20045;-77
2021/06/13 06:33:44;;;;;;;4.05;1.80;;;;;;;25.46;35.70;100304.28;5052802;28;20469;-77
2021/06/13 06:36:12;;;;;;;4.18;1.95;;;;;;;25.82;36.12;100312.63;5052527;28;20053;-77
2021/06/13 06:38:40;;;;;;;5.82;1.70;;;;;;;25.73;34.86;100308.28;5052518;28;20048;-77
2021/06/13 06:41:09;;;;;;;4.40;1.83;;;;;;;25.75;35.17;100311.66;5052502;28;20516;-77
2021/06/13 06:43:37;;;;;;;4.25;1.90;;;;;;;25.88;35.07;100317.34;5052479;28;20163;-78
2021/06/13 06:46:06;;;;;;;3.20;1.70;;;;;;;25.45;35.38;100317.09;5052797;28;20445;-77
2021/06/13 06:48:35;;;;;;;5.43;2.00;;;;;;;25.17;35.96;100307.84;5052689;28;20436;-77
2021/06/13 06:51:03;;;;;;;6.07;1.80;;;;;;;25.45;35.43;100317.09;5052499;28;20095;-77
2021/06/13 06:53:31;;;;;;;4.28;1.60;;;;;;;24.87;36.12;100315.91;5052610;28;20041;-77
2021/06/13 06:55:59;;;;;;;4.75;1.88;;;;;;;24.91;37.15;100306.34;5052581;28;20115;-75
2021/06/13 06:58:28;;;;;;;3.67;1.77;;;;;;;24.28;37.43;100324.66;5052408;28;20099;-76
2021/06/13 07:00:56;;;;;;;4.60;1.85;;;;;;;22.90;39.60;100324.19;5052303;28;20072;-77
2021/06/13 07:03:26;;;;;;;3.90;1.67;;;;;;;22.58;40.83;100328.53;5052511;28;20041;-77
2021/06/13 07:05:55;;;;;;;4.55;1.70;;;;;;;22.61;41.91;100317.34;5052158;28;20143;-77
2021/06/13 07:08:25;;;;;;;7.50;1.85;;;;;;;22.41;41.60;100316.78;5053188;28;20041;-77
2021/06/13 07:10:55;;;;;;;4.35;1.90;;;;;;;22.01;40.50;100325.66;5056092;28;20045;-78
2021/06/13 07:13:23;;;;;;;3.03;1.60;;;;;;;21.40;40.50;100332.97;5055095;28;20055;-77
2021/06/13 07:15:51;;;;;;;4.72;1.67;;;;;;;21.74;40.77;100321.28;5056316;28;20052;-78
2021/06/13 07:18:20;;;;;;;4.53;1.75;;;;;;;22.10;41.53;100322.00;5055973;28;20049;-77
2021/06/13 07:20:49;;;;;;;6.93;1.90;;;;;;;22.36;42.08;100337.31;5055852;28;20425;-77
2021/06/13 07:23:18;;;;;;;4.07;1.80;;;;;;;21.83;43.21;100336.59;5055818;28;20128;-77
2021/06/13 07:25:47;;;;;;;5.05;1.90;;;;;;;21.83;39.78;100354.75;5055940;28;20044;-77
2021/06/13 07:28:15;;;;;;;5.30;1.67;;;;;;;21.65;41.96;100357.56;5055767;28;20072;-77
2021/06/13 07:30:46;;;;;;;3.83;1.90;;;;;;;21.57;41.44;100365.63;5055749;28;20124;-77
2021/06/13 07:33:14;;;;;;;5.75;1.90;;;;;;;21.78;41.42;100355.22;5055134;28;20497;-77
2021/06/13 07:35:43;;;;;;;5.00;1.75;;;;;;;21.43;42.55;100365.22;5055529;28;20044;-77
2021/06/13 07:38:12;;;;;;;5.40;1.80;;;;;;;21.67;42.48;100361.78;5055270;28;20512;-77
2021/06/13 07:40:40;;;;;;;5.70;2.08;;;;;;;21.95;42.56;100361.59;5055360;28;20052;-76
2021/06/13 07:43:09;;;;;;;4.03;1.90;;;;;;;21.64;44.58;100361.28;5055075;28;20053;-76
2021/06/13 07:45:37;;;;;;;6.72;2.08;;;;;;;21.53;43.87;100373.25;5055455;28;20064;-76
2021/06/13 07:48:08;;;;;;;6.38;2.17;;;;;;;21.33;44.06;100363.63;5055190;28;20036;-76
2021/06/13 07:50:38;;;;;;;5.57;2.08;;;;;;;21.70;44.84;100356.03;5055241;28;20044;-77
2021/06/13 07:53:06;;;;;;;6.03;1.98;;;;;;;21.28;43.40;100355.94;5055012;28;20041;-78
2021/06/13 07:55:36;;;;;;;7.15;1.60;;;;;;;20.67;44.89;100364.06;5055408;28;20049;-77
2021/06/13 07:58:05;;;;;;;5.40;1.88;;;;;;;20.90;43.26;100361.72;5055235;28;20045;-77
2021/06/13 08:00:34;;;;;;;3.60;1.65;;;;;;;20.83;45.90;100356.06;5054306;28;20057;-77
2021/06/13 08:03:03;;;;;;;3.15;1.60;;;;;;;20.75;43.07;100353.25;5054708;28;20076;-77
2021/06/13 08:05:31;;;;;;;3.85;1.50;;;;;;;20.18;44.05;100363.50;5055481;28;20045;-78
2021/06/13 08:08:01;;;;;;;3.83;1.48;;;;;;;20.44;44.68;100347.38;5055001;28;20449;-79
2021/06/13 08:10:30;;;;;;;3.88;1.80;;;;;;;20.71;43.93;100349.16;5055216;28;20040;-78
2021/06/13 08:13:00;;;;;;;2.45;1.40;;;;;;;20.83;42.03;100361.47;5054688;28;20049;-78
2021/06/13 08:15:30;;;;;;;5.03;1.88;;;;;;;20.56;42.49;100352.44;5054591;28;20421;-77
2021/06/13 08:17:59;;;;;;;3.42;1.50;;;;;;;20.66;42.06;100359.63;5054593;28;20045;-77
2021/06/13 08:20:28;;;;;;;4.57;1.70;;;;;;;20.52;42.27;100340.19;5053908;28;20045;-76
2021/06/13 08:22:57;;;;;;;5.53;1.60;;;;;;;20.53;42.49;100335.63;5054464;28;20072;-78
2021/06/13 08:25:26;;;;;;;5.72;1.50;;;;;;;20.92;42.49;100333.44;5054705;28;20486;-75
2021/06/13 08:27:55;;;;;;;4.32;1.65;;;;;;;21.02;41.01;100364.00;5054490;28;20048;-76
2021/06/13 08:30:25;;;;;;;3.22;1.73;;;;;;;21.11;41.25;100356.81;5055049;28;20072;-76
2021/06/13 08:32:54;;;;;;;4.78;1.70;;;;;;;20.84;39.79;100360.47;5054527;28;20086;-77
2021/06/13 08:35:22;;;;;;;5.15;1.58;;;;;;;20.91;39.65;100356.13;5054447;28;20041;-78
2021/06/13 08:37:51;;;;;;;4.68;1.58;;;;;;;20.79;40.12;100354.66;5054509;28;20076;-76
2021/06/13 08:40:20;;;;;;;4.97;1.80;;;;;;;21.02;38.98;100371.31;5054259;28;20044;-76
2021/06/13 08:42:49;;;;;;;3.90;1.73;;;;;;;21.04;39.00;100362.03;5056670;28;20095;-76
2021/06/13 08:45:19;;;;;;;4.55;1.60;;;;;;;21.13;38.80;100347.53;5055707;28;20053;-77
2021/06/13 08:47:52;;;;;;;4.68;1.65;;;;;;;21.28;37.22;100369.50;5054876;28;20045;-76
2021/06/13 08:50:24;;;;;;;3.92;1.50;;;;;;;20.87;37.68;100368.31;5054518;28;20060;-77
2021/06/13 08:52:53;;;;;;;4.95;1.88;;;;;;;21.27;37.44;100358.81;5054270;28;20120;-76
2021/06/13 08:55:23;;;;;;;3.13;1.40;;;;;;;21.56;37.19;100391.94;5053702;28;20076;-75
2021/06/13 08:57:52;;;;;;;4.65;1.50;;;;;;;21.00;37.00;100389.59;5054263;28;20401;-75
2021/06/13 09:00:24;;;;;;;4.07;1.67;;;;;;;21.03;38.24;100376.56;5053824;28;20036;-76
2021/06/13 09:02:54;;;;;;;8.02;1.50;;;;;;;21.28;36.14;100382.22;5053990;28;20166;-76
2021/06/13 09:05:25;;;;;;;4.22;1.45;;;;;;;21.21;36.82;100375.69;5053665;28;20454;-75
2021/06/13 09:07:55;;;;;;;3.28;1.50;;;;;;;21.28;35.72;100387.66;5054157;28;20045;-75
2021/06/13 09:10:28;;;;;;;5.07;1.85;;;;;;;21.56;37.22;100380.22;5053824;28;20045;-76
2021/06/13 09:13:09;;;;;;;3.10;1.48;;;;;;;21.57;36.59;100388.19;5054051;28;20045;-77
2021/06/13 09:15:48;;;;;;;5.13;1.60;;;;;;;21.02;37.07;100393.00;5052265;28;20056;-75
2021/06/13 09:18:36;;;;;;;4.75;1.65;;;;;;;21.15;37.33;100386.19;5053688;28;20068;-75
2021/06/13 09:21:07;;;;;;;5.72;1.63;;;;;;;21.39;35.36;100407.25;5053699;28;20045;-76
2021/06/13 09:23:38;;;;;;;4.10;1.65;;;;;;;21.38;35.99;100394.69;5053840;28;20044;-75
2021/06/13 09:26:16;;;;;;;4.43;1.70;;;;;;;21.26;35.31;100401.38;5053365;28;20048;-76
2021/06/13 09:28:46;;;;;;;3.55;1.40;;;;;;;21.50;35.91;100397.13;5053777;28;20440;-75
2021/06/13 09:31:17;;;;;;;5.90;1.80;;;;;;;21.69;36.84;100391.50;5053547;28;20041;-76
2021/06/13 09:33:49;;;;;;;6.40;1.55;;;;;;;21.57;35.71;100404.47;5053586;28;20367;-77
2021/06/13 09:36:20;;;;;;;5.72;1.33;;;;;;;21.50;35.96;100402.56;5053066;28;20095;-76
2021/06/13 09:38:49;;;;;;;4.88;1.60;;;;;;;21.15;37.11;100407.88;5053475;28;20041;-77
2021/06/13 09:41:21;;;;;;;4.40;1.60;;;;;;;20.89;36.84;100416.94;5053347;28;20041;-77
2021/06/13 09:43:54;;;;;;;3.67;1.60;;;;;;;20.99;37.10;100413.16;5053320;28;20037;-76
2021/06/13 09:46:24;;;;;;;4.88;1.40;;;;;;;21.53;35.82;100445.69;5053052;28;20057;-76
2021/06/13 09:48:56;;;;;;;5.00;1.60;;;;;;;21.52;35.77;100412.28;5053357;28;20057;-77
2021/06/13 09:51:26;;;;;;;5.40;1.55;;;;;;;20.99;35.59;100413.16;5052852;28;20044;-75
2021/06/13 09:53:56;;;;;;;5.55;1.85;;;;;;;20.95;36.30;100411.75;5053705;28;20053;-78
2021/06/13 09:56:26;;;;;;;4.20;1.77;;;;;;;21.19;36.56;100429.25;5052913;28;20048;-76
2021/06/13 09:59:00;;;;;;;4.10;1.40;;;;;;;21.11;35.62;100422.75;5052919;28;20072;-76
2021/06/13 10:01:32;;;;;;;3.53;1.60;;;;;;;20.98;36.70;100414.16;5053216;28;20071;-76
2021/06/13 10:04:02;;;;;;;4.30;1.55;;;;;;;21.25;36.25;100418.63;5053041;28;20071;-76
2021/06/13 10:06:32;;;;;;;4.75;1.83;;;;;;;21.26;35.50;100449.31;5053115;28;20118;-76
2021/06/13 10:09:01;;;;;;;3.92;1.58;;;;;;;20.91;36.46;100423.91;5052841;28;20045;-77
2021/06/13 10:11:29;;;;;;;3.88;1.48;;;;;;;20.97;36.33;100434.16;5052853;28;20049;-77
2021/06/13 10:13:59;;;;;;;5.57;1.63;;;;;;;21.00;36.93;100412.13;5052615;28;20056;-76
2021/06/13 10:16:36;;;;;;;4.35;1.88;;;;;;;21.08;36.72;100441.19;5052646;28;20087;-77
2021/06/13 10:19:09;;;;;;;5.30;1.70;;;;;;;21.21;37.33;100429.94;5052862;28;20041;-80
2021/06/13 10:21:39;;;;;;;5.40;1.70;;;;;;;21.27;37.79;100423.94;5052991;28;20037;-77
2021/06/13 10:24:11;;;;;;;5.05;1.80;;;;;;;21.51;36.67;100420.53;5052682;28;20041;-78
2021/06/13 10:26:41;;;;;;;5.63;1.85;;;;;;;21.51;37.21;100437.69;5053116;28;20045;-78
2021/06/13 10:29:11;;;;;;;4.00;1.65;;;;;;;21.68;35.48;100434.06;5052940;28;20044;-78
2021/06/13 10:31:39;;;;;;;2.88;1.67;;;;;;;21.96;35.35;100433.91;5052951;28;20047;-78
2021/06/13 10:34:09;;;;;;;4.07;1.65;;;;;;;22.09;34.30;100442.47;5052540;28;20041;-77
2021/06/13 10:36:40;;;;;;;5.22;1.80;;;;;;;21.63;36.22;100435.56;5052614;28;20049;-78
2021/06/13 10:39:09;;;;;;;4.95;1.70;;;;;;;21.46;36.20;100437.31;5052337;28;20125;-79
2021/06/13 10:41:38;;;;;;;5.53;1.80;;;;;;;21.66;35.19;100436.09;5052798;28;20041;-76
2021/06/13 10:44:11;;;;;;;4.35;1.65;;;;;;;21.94;35.13;100417.78;5054511;28;20099;-77
2021/06/13 10:46:41;;;;;;;5.05;1.50;;;;;;;21.74;34.60;100437.19;5056773;28;20057;-75
2021/06/13 10:49:30;;;;;;;4.70;1.42;;;;;;;21.52;35.09;100435.81;5056680;28;20041;-77
2021/06/13 10:52:10;;;;;;;4.45;1.52;;;;;;;21.97;34.86;100432.88;5056456;28;20041;-77
2021/06/13 10:54:41;;;;;;;6.72;1.80;;;;;;;21.70;34.57;100434.75;5056424;28;20064;-75
2021/06/13 10:57:32;;;;;;;5.35;1.50;;;;;;;21.58;35.75;100438.75;5056251;28;20044;-78
2021/06/13 11:00:07;;;;;;;6.45;1.60;;;;;;;21.32;33.83;100444.13;5056041;28;20553;-77
2021/06/13 11:02:59;;;;;;;6.95;2.00;;;;;;;21.71;34.70;100417.50;5056418;28;20041;-77
2021/06/13 11:05:48;;;;;;;4.32;1.95;;;;;;;21.79;34.68;100418.53;5056095;28;20053;-76
2021/06/13 11:08:17;;;;;;;12.90;1.50;;;;;;;21.61;35.03;100422.16;5056137;28;20040;-78
2021/06/13 11:10:48;;;;;;;4.72;1.50;;;;;;;21.91;35.22;100439.84;5056730;28;20076;-78
2021/06/13 11:13:24;;;;;;;3.60;1.63;;;;;;;21.79;34.53;100440.25;5056248;28;20045;-77
2021/06/13 11:16:03;;;;;;;4.80;1.50;;;;;;;21.44;36.43;100431.19;5056235;28;20445;-77
2021/06/13 11:18:40;;;;;;;7.30;1.52;;;;;;;21.02;37.43;100445.38;5056143;28;20056;-76
2021/06/13 11:21:22;;;;;;;4.13;1.60;;;;;;;21.27;36.96;100418.50;5056224;28;20079;-77
2021/06/13 11:23:55;;;;;;;4.15;1.50;;;;;;;21.17;37.73;100423.13;5056335;28;20045;-77
2021/06/13 11:26:40;;;;;;;5.68;2.08;;;;;;;21.41;37.65;100435.06;5055808;28;20091;-77
2021/06/13 11:29:11;;;;;;;2.50;1.48;;;;;;;21.42;36.41;100455.78;5055941;28;20045;-77
2021/06/13 11:31:51;;;;;;;3.20;1.25;;;;;;;21.45;32.97;100437.47;5055841;28;20048;-77
2021/06/13 11:34:23;;;;;;;4.72;1.80;;;;;;;21.43;33.38;100459.34;5055742;28;20503;-77
2021/06/13 11:36:54;;;;;;;4.38;1.80;;;;;;;21.32;34.63;100427.84;5054715;28;20045;-77
2021/06/13 11:39:29;;;;;;;5.85;1.80;;;;;;;21.26;35.25;100416.78;5056194;28;20041;-77